Time;durP1;ratioP1;P1;durP2;ratioP2;P2;SDS_P1;SDS_P2;PMS_P1;PMS_P2;Temp;Humidity;BMP_temperature;BMP_pressure;BME280_temperature;BME280_humidity;BME280_pressure;Samples;Min_cycle;Max_cycle;Signal;HPM_P1;HPM_P2
2023/10/12 00:01:24;;;;;;;;;;;15.30;93.60;;;;;;5022942;28;20377;-81
2023/10/12 00:03:55;;;;;;;;;;;15.40;93.20;;;;;;5023280;28;19913;-81
2023/10/12 00:06:22;;;;;;;;;;;15.40;93.40;;;;;;5020796;28;20343;-82
2023/10/12 00:08:48;;;;;;;;;;;15.40;93.50;;;;;;5020081;28;20041;-82
2023/10/12 00:11:19;;;;;;;;;;;15.40;93.50;;;;;;5015874;28;19925;-83
2023/10/12 00:13:47;;;;;;;;;;;15.30;93.60;;;;;;5018405;28;19917;-82
2023/10/12 00:16:19;;;;;;;;;;;15.20;93.90;;;;;;5021165;28;19923;-82
2023/10/12 00:18:47;;;;;;;;;;;15.10;94.00;;;;;;5040161;28;19975;-82
2023/10/12 00:21:18;;;;;;;;;;;15.10;94.10;;;;;;5020788;28;19921;-82
2023/10/12 00:23:44;;;;;;;;;;;15.30;93.90;;;;;;5018660;28;19917;-82
2023/10/12 00:26:10;;;;;;;;;;;15.30;93.50;;;;;;5019318;28;19921;-81
2023/10/12 00:28:38;;;;;;;;;;;15.30;93.70;;;;;;5011015;28;19919;-81
2023/10/12 00:31:08;;;;;;;;;;;15.00;94.00;;;;;;5016608;28;20823;-81
2023/10/12 00:33:35;;;;;;;;;;;15.00;94.10;;;;;;5022230;28;19929;-80
2023/10/12 00:36:04;;;;;;;;;;;15.00;94.20;;;;;;5021215;28;19984;-84
2023/10/12 00:38:30;;;;;;;;;;;15.10;94.00;;;;;;5022540;28;19920;-82
2023/10/12 00:41:06;;;;;;;;;;;15.20;93.70;;;;;;5014806;28;19928;-83
2023/10/12 00:43:36;;;;;;;;;;;15.20;93.60;;;;;;5021323;28;19917;-84
2023/10/12 00:46:23;;;;;;;;;;;15.10;93.70;;;;;;5025844;28;19912;-84
2023/10/12 00:49:13;;;;;;;;;;;15.10;93.30;;;;;;5023621;28;20052;-84
2023/10/12 00:51:34;;;;;;;;;;;15.10;93.30;;;;;;5020222;28;20285;-84
2023/10/12 00:53:59;;;;;;;;;;;15.00;93.30;;;;;;5019032;28;19920;-84
2023/10/12 00:56:25;;;;;;;;;;;15.00;93.40;;;;;;5020453;28;20371;-82
2023/10/12 00:58:54;;;;;;;;;;;15.00;93.50;;;;;;5020225;28;20816;-83
2023/10/12 01:01:20;;;;;;;;;;;15.00;93.60;;;;;;5022626;28;19921;-81
2023/10/12 01:03:47;;;;;;;;;;;14.90;93.80;;;;;;5022863;28;19990;-80
2023/10/12 01:08:44;;;;;;;;;;;14.90;93.80;;;;;;5023730;28;20359;-81
2023/10/12 01:11:17;;;;;;;;;;;15.00;93.90;;;;;;5025875;28;19913;-81
2023/10/12 01:13:43;;;;;;;;;;;14.90;93.90;;;;;;5023218;28;21072;-81
2023/10/12 01:16:20;;;;;;;;;;;14.90;94.00;;;;;;5018697;28;19914;-81
2023/10/12 01:18:46;;;;;;;;;;;15.00;93.90;;;;;;5026353;28;19991;-81
2023/10/12 01:21:11;;;;;;;;;;;14.90;94.20;;;;;;5049094;28;19921;-81
2023/10/12 01:23:41;;;;;;;;;;;14.80;94.40;;;;;;5023538;28;20451;-81
2023/10/12 01:26:12;;;;;;;;;;;14.70;94.50;;;;;;5025344;28;19921;-81
2023/10/12 01:28:39;;;;;;;;;;;14.70;94.70;;;;;;5023529;28;20664;-83
2023/10/12 01:31:06;;;;;;;;;;;14.60;94.80;;;;;;5026561;28;19947;-81
2023/10/12 01:33:31;;;;;;;;;;;14.60;94.90;;;;;;5022680;28;19920;-81
2023/10/12 01:35:58;;;;;;;;;;;14.70;94.70;;;;;;5013682;28;19917;-81
2023/10/12 01:38:23;;;;;;;;;;;14.70;94.40;;;;;;5021677;28;20634;-81
2023/10/12 01:43:17;;;;;;;;;;;14.60;94.50;;;;;;5023231;28;19921;-84
2023/10/12 01:45:43;;;;;;;;;;;14.60;94.50;;;;;;5019713;28;19916;-83
2023/10/12 01:48:22;;;;;;;;;;;14.60;94.40;;;;;;5022826;28;19991;-84
2023/10/12 01:50:49;;;;;;;;;;;14.60;94.30;;;;;;5024350;28;19913;-84
2023/10/12 01:53:29;;;;;;;;;;;14.50;94.30;;;;;;5020198;28;20004;-83
2023/10/12 01:55:54;;;;;;;;;;;14.50;94.40;;;;;;5024178;28;19923;-84
2023/10/12 01:58:23;;;;;;;;;;;14.40;94.50;;;;;;5027988;28;19913;-87
2023/10/12 02:00:51;;;;;;;;;;;14.30;94.70;;;;;;5030109;28;19956;-85
2023/10/12 02:03:20;;;;;;;;;;;14.30;94.80;;;;;;5028428;28;19919;-85
2023/10/12 02:05:50;;;;;;;;;;;14.20;95.00;;;;;;5022456;28;19964;-85
2023/10/12 02:08:16;;;;;;;;;;;14.10;95.20;;;;;;5025218;28;19916;-86
2023/10/12 02:10:54;;;;;;;;;;;14.10;95.30;;;;;;5023846;28;19915;-86
2023/10/12 02:13:21;;;;;;;;;;;14.10;95.40;;;;;;5025337;28;19991;-84
2023/10/12 02:15:49;;;;;;;;;;;14.10;95.40;;;;;;5015136;28;20374;-85
2023/10/12 02:18:16;;;;;;;;;;;14.10;95.20;;;;;;5028475;28;19928;-86
2023/10/12 02:21:06;;;;;;;;;;;14.20;95.20;;;;;;5024406;28;20379;-85
2023/10/12 02:23:36;;;;;;;;;;;14.10;95.20;;;;;;5024374;28;19913;-85
2023/10/12 02:26:07;;;;;;;;;;;14.00;95.30;;;;;;5019420;28;20062;-85
2023/10/12 02:28:37;;;;;;;;;;;14.00;95.50;;;;;;5020320;28;19913;-85
2023/10/12 02:31:04;;;;;;;;;;;13.90;95.60;;;;;;5013571;28;19914;-85
2023/10/12 02:33:35;;;;;;;;;;;13.90;95.70;;;;;;5017452;28;19913;-85
2023/10/12 02:36:06;;;;;;;;;;;14.00;95.60;;;;;;5018664;28;19912;-84
2023/10/12 02:38:34;;;;;;;;;;;14.00;95.40;;;;;;5024752;28;19913;-83
2023/10/12 02:40:59;;;;;;;;;;;14.00;95.50;;;;;;5021385;28;19924;-83
2023/10/12 02:43:28;;;;;;;;;;;14.00;95.50;;;;;;5018702;28;19917;-87
2023/10/12 02:45:59;;;;;;;;;;;13.90;95.60;;;;;;5028908;28;19919;-89
2023/10/12 02:48:25;;;;;;;;;;;13.90;95.70;;;;;;5027694;28;19913;-88
2023/10/12 02:51:01;;;;;;;;;;;13.90;95.80;;;;;;5027729;28;19913;-88
2023/10/12 02:53:30;;;;;;;;;;;13.80;95.90;;;;;;5019975;28;19919;-88
2023/10/12 02:55:58;;;;;;;;;;;13.60;96.60;;;;;;5028795;28;20005;-88
2023/10/12 02:58:24;;;;;;;;;;;13.60;96.50;;;;;;5023186;28;19924;-87
2023/10/12 03:00:56;;;;;;;;;;;13.70;96.20;;;;;;5021315;28;19919;-85
2023/10/12 03:03:26;;;;;;;;;;;13.70;96.10;;;;;;5017895;28;20027;-85
2023/10/12 03:05:53;;;;;;;;;;;13.70;95.90;;;;;;5021940;28;19913;-86
2023/10/12 03:08:20;;;;;;;;;;;13.80;95.80;;;;;;5022859;28;20372;-84
2023/10/12 03:13:33;;;;;;;;;;;13.70;96.00;;;;;;5024393;28;19913;-85
2023/10/12 03:16:03;;;;;;;;;;;13.60;96.10;;;;;;5018472;28;19962;-84
2023/10/12 03:18:29;;;;;;;;;;;13.50;96.10;;;;;;5024183;28;19909;-84
2023/10/12 03:21:04;;;;;;;;;;;13.50;96.30;;;;;;5016059;28;19921;-82
2023/10/12 03:23:33;;;;;;;;;;;13.50;96.20;;;;;;5015551;28;19919;-82
2023/10/12 03:26:06;;;;;;;;;;;13.50;96.10;;;;;;5016257;28;19927;-84
2023/10/12 03:28:44;;;;;;;;;;;13.50;96.10;;;;;;5015861;28;20363;-83
2023/10/12 03:31:35;;;;;;;;;;;13.50;96.00;;;;;;5015441;28;19920;-84
2023/10/12 03:34:01;;;;;;;;;;;13.40;96.30;;;;;;5013711;28;19920;-84
2023/10/12 03:36:32;;;;;;;;;;;13.30;96.60;;;;;;5017765;28;19909;-84
2023/10/12 03:39:24;;;;;;;;;;;13.30;96.70;;;;;;5015574;28;19979;-83
2023/10/12 03:42:11;;;;;;;;;;;13.30;96.80;;;;;;5008562;28;19921;-84
2023/10/12 03:47:23;;;;;;;;;;;13.30;96.60;;;;;;5023325;28;19917;-84
2023/10/12 03:52:43;;;;;;;;;;;13.20;96.80;;;;;;5023433;28;19958;-87
2023/10/12 04:13:09;;;;;;;;;;;13.20;96.80;;;;;;5022026;28;19963;-87
2023/10/12 04:18:19;;;;;;;;;;;13.10;96.90;;;;;;5014066;28;19988;-84
2023/10/12 04:20:45;;;;;;;;;;;13.10;97.10;;;;;;5017595;28;19917;-85
2023/10/12 04:26:09;;;;;;;;;;;13.10;97.10;;;;;;5021296;28;20013;-84
2023/10/12 04:28:35;;;;;;;;;;;13.00;97.10;;;;;;5022811;28;20115;-83
2023/10/12 04:34:10;;;;;;;;;;;13.00;97.00;;;;;;5019250;28;19956;-84
2023/10/12 04:37:07;;;;;;;;;;;12.90;97.40;;;;;;5013599;28;19913;-85
2023/10/12 04:39:24;;;;;;;;;;;12.90;97.40;;;;;;5012092;28;19982;-82
2023/10/12 04:47:07;;;;;;;;;;;13.00;97.20;;;;;;5015355;28;19923;-85
2023/10/12 04:57:26;;;;;;;;;;;12.80;97.30;;;;;;5023278;28;19916;-88
2023/10/12 05:05:15;;;;;;;;;;;12.80;97.50;;;;;;5022506;28;19935;-86
2023/10/12 05:10:31;;;;;;;;;;;12.70;97.90;;;;;;5021232;28;19917;-85
2023/10/12 05:13:03;;;;;;;;;;;12.70;97.70;;;;;;5021210;28;19913;-87
2023/10/12 05:15:39;;;;;;;;;;;12.70;97.80;;;;;;5018001;28;19920;-86
2023/10/12 05:18:11;;;;;;;;;;;12.60;98.10;;;;;;5021924;28;19945;-87
2023/10/12 05:20:43;;;;;;;;;;;12.70;98.00;;;;;;5016737;28;19912;-86
2023/10/12 05:23:10;;;;;;;;;;;12.70;98.10;;;;;;5022729;28;19913;-86
2023/10/12 05:26:07;;;;;;;;;;;12.60;98.00;;;;;;5022297;28;19932;-88
2023/10/12 05:28:27;;;;;;;;;;;12.60;98.00;;;;;;5020865;28;19912;-84
2023/10/12 05:30:59;;;;;;;;;;;12.70;97.90;;;;;;5024647;28;20266;-83
2023/10/12 05:33:38;;;;;;;;;;;12.60;98.00;;;;;;5025632;28;19912;-83
2023/10/12 05:36:10;;;;;;;;;;;12.50;98.20;;;;;;5026302;28;19909;-82
2023/10/12 05:38:39;;;;;;;;;;;12.60;98.00;;;;;;5026081;28;19924;-83
2023/10/12 05:41:08;;;;;;;;;;;12.60;97.90;;;;;;5025263;28;20531;-84
2023/10/12 05:43:36;;;;;;;;;;;12.60;97.90;;;;;;5024295;28;19912;-85
2023/10/12 05:46:04;;;;;;;;;;;12.60;98.00;;;;;;5021319;28;20043;-76
2023/10/12 05:48:33;;;;;;;;;;;12.60;97.90;;;;;;5020767;28;19916;-76
2023/10/12 05:50:58;;;;;;;;;;;12.60;97.80;;;;;;5025483;28;20003;-78
2023/10/12 05:53:26;;;;;;;;;;;12.60;97.80;;;;;;5025337;28;20261;-81
2023/10/12 05:55:52;;;;;;;;;;;12.60;97.70;;;;;;5025625;28;19915;-76
2023/10/12 05:58:17;;;;;;;;;;;12.50;98.10;;;;;;5025871;28;19909;-76
2023/10/12 06:00:46;;;;;;;;;;;12.40;98.40;;;;;;5026365;28;19947;-78
2023/10/12 06:03:20;;;;;;;;;;;12.50;98.20;;;;;;5026198;28;20505;-76
2023/10/12 06:05:47;;;;;;;;;;;12.40;98.10;;;;;;5024600;28;19916;-77
2023/10/12 06:08:18;;;;;;;;;;;12.50;97.90;;;;;;5024545;28;19913;-77
2023/10/12 06:10:44;;;;;;;;;;;12.60;97.80;;;;;;5025542;28;19909;-81
2023/10/12 06:13:12;;;;;;;;;;;12.50;97.80;;;;;;5024791;28;20403;-75
2023/10/12 06:15:42;;;;;;;;;;;12.50;97.90;;;;;;5014432;28;20406;-78
2023/10/12 06:18:11;;;;;;;;;;;12.60;97.80;;;;;;5025796;28;19920;-77
2023/10/12 06:20:41;;;;;;;;;;;12.70;97.40;;;;;;5025471;28;19905;-74
2023/10/12 06:23:13;;;;;;;;;;;12.90;96.80;;;;;;5025032;28;20501;-74
2023/10/12 06:25:39;;;;;;;;;;;12.90;96.70;;;;;;5025010;28;19972;-78
2023/10/12 06:28:13;;;;;;;;;;;13.00;96.50;;;;;;5016081;28;19964;-84
2023/10/12 06:30:39;;;;;;;;;;;13.30;96.00;;;;;;5022078;28;20008;-85
2023/10/12 06:33:07;;;;;;;;;;;13.40;95.50;;;;;;5024387;28;19913;-85
2023/10/12 06:35:34;;;;;;;;;;;13.60;95.10;;;;;;5024002;28;19916;-84
2023/10/12 06:38:15;;;;;;;;;;;13.90;94.60;;;;;;5013250;28;19909;-86
2023/10/12 06:40:48;;;;;;;;;;;14.10;93.80;;;;;;5023200;28;19915;-86
2023/10/12 06:45:52;;;;;;;;;;;14.60;92.90;;;;;;5021632;28;20443;-87
2023/10/12 06:53:38;;;;;;;;;;;16.10;88.80;;;;;;5024875;28;20841;-86
2023/10/12 06:59:21;;;;;;;;;;;16.20;87.70;;;;;;4996376;28;19909;-86
2023/10/12 07:04:16;;;;;;;;;;;16.50;87.30;;;;;;5017484;28;20301;-86
2023/10/12 07:06:56;;;;;;;;;;;16.40;87.00;;;;;;5022736;28;19980;-86
2023/10/12 07:09:42;;;;;;;;;;;16.40;86.60;;;;;;5012685;28;19941;-86
2023/10/12 07:12:09;;;;;;;;;;;16.90;86.00;;;;;;5017450;28;20427;-86
2023/10/12 07:14:38;;;;;;;;;;;17.00;84.90;;;;;;5006494;28;19909;-86
2023/10/12 07:17:04;;;;;;;;;;;17.40;83.20;;;;;;5010353;28;19909;-86
2023/10/12 07:19:30;;;;;;;;;;;17.40;83.10;;;;;;5015095;28;19913;-87
2023/10/12 07:22:01;;;;;;;;;;;18.00;82.70;;;;;;5022581;28;20467;-86
2023/10/12 07:24:26;;;;;;;;;;;18.10;80.40;;;;;;5013508;28;19909;-86
2023/10/12 07:26:52;;;;;;;;;;;18.20;79.80;;;;;;5014338;28;19909;-86
2023/10/12 07:29:35;;;;;;;;;;;18.50;80.10;;;;;;5020618;28;19916;-86
2023/10/12 07:35:07;;;;;;;;;;;18.80;78.30;;;;;;5016582;28;20495;-86
2023/10/12 07:37:33;;;;;;;;;;;19.00;78.00;;;;;;5012651;28;19909;-85
2023/10/12 07:40:16;;;;;;;;;;;18.70;77.90;;;;;;5017634;28;19919;-86
2023/10/12 07:42:42;;;;;;;;;;;18.90;76.90;;;;;;5015478;28;19945;-87
2023/10/12 07:45:09;;;;;;;;;;;18.80;76.70;;;;;;5019048;28;19948;-85
2023/10/12 07:47:40;;;;;;;;;;;19.70;76.20;;;;;;5020642;28;20004;-86
2023/10/12 07:50:14;;;;;;;;;;;20.20;74.10;;;;;;5024726;28;19913;-87
2023/10/12 07:52:46;;;;;;;;;;;20.10;73.20;;;;;;5020043;28;20261;-86
2023/10/12 07:55:13;;;;;;;;;;;20.10;73.10;;;;;;5017750;28;19916;-87
2023/10/12 07:57:39;;;;;;;;;;;20.50;73.20;;;;;;5022061;28;19916;-87
2023/10/12 08:13:14;;;;;;;;;;;21.30;69.50;;;;;;5016783;28;19959;-86
2023/10/12 08:23:37;;;;;;;;;;;22.20;67.20;;;;;;5020171;28;19909;-86
2023/10/12 08:26:03;;;;;;;;;;;21.70;67.60;;;;;;5022916;28;19983;-86
2023/10/12 08:28:37;;;;;;;;;;;22.10;66.90;;;;;;5023132;28;19913;-86
2023/10/12 08:31:06;;;;;;;;;;;21.90;67.60;;;;;;5013466;28;19910;-86
2023/10/12 08:33:49;;;;;;;;;;;22.10;67.10;;;;;;5021785;28;19909;-87
2023/10/12 08:38:47;;;;;;;;;;;22.50;65.60;;;;;;5022944;28;19909;-86
2023/10/12 08:43:59;;;;;;;;;;;23.30;64.30;;;;;;5016136;28;19909;-86
2023/10/12 08:54:37;;;;;;;;;;;23.40;63.70;;;;;;5012871;28;20000;-86
2023/10/12 08:57:32;;;;;;;;;;;23.70;63.90;;;;;;5016660;28;20661;-84
2023/10/12 09:00:23;;;;;;;;;;;23.90;63.60;;;;;;5021428;28;19909;-85
2023/10/12 09:02:49;;;;;;;;;;;24.00;61.80;;;;;;5018793;28;19975;-86
2023/10/12 09:05:24;;;;;;;;;;;24.00;62.10;;;;;;5023008;28;19909;-85
2023/10/12 09:08:05;;;;;;;;;;;24.20;61.90;;;;;;5025324;28;20039;-85
2023/10/12 09:13:47;;;;;;;;;;;24.40;61.80;;;;;;4996746;28;20270;-86
2023/10/12 09:16:15;;;;;;;;;;;24.30;61.30;;;;;;5016244;28;19909;-85
2023/10/12 09:18:49;;;;;;;;;;;25.00;60.70;;;;;;5027107;28;19916;-86
2023/10/12 09:23:52;;;;;;;;;;;25.10;59.30;;;;;;5022298;28;19917;-85
2023/10/12 09:26:30;;;;;;;;;;;24.90;58.70;;;;;;5033044;28;19995;-85
2023/10/12 09:36:29;;;;;;;;;;;24.00;59.60;;;;;;5025920;28;19929;-85
2023/10/12 09:39:00;;;;;;;;;;;23.60;59.10;;;;;;5024897;28;19917;-85
2023/10/12 09:41:29;;;;;;;;;;;23.90;61.30;;;;;;5023650;28;19924;-85
2023/10/12 09:43:58;;;;;;;;;;;24.10;61.00;;;;;;5024298;28;19913;-86
2023/10/12 09:46:27;;;;;;;;;;;24.20;60.90;;;;;;5024527;28;20008;-85
2023/10/12 09:49:08;;;;;;;;;;;24.30;61.90;;;;;;5023977;28;19917;-85
2023/10/12 09:51:36;;;;;;;;;;;24.10;61.50;;;;;;5015367;28;19962;-85
2023/10/12 09:54:05;;;;;;;;;;;24.10;61.90;;;;;;5023954;28;19909;-85
2023/10/12 09:56:44;;;;;;;;;;;24.00;60.80;;;;;;5024929;28;19908;-85
2023/10/12 09:59:13;;;;;;;;;;;24.40;62.80;;;;;;5025761;28;19916;-86
2023/10/12 10:05:00;;;;;;;;;;;24.60;61.20;;;;;;5026065;28;19979;-85
2023/10/12 10:07:08;;;;;;;;;;;24.40;61.00;;;;;;5022351;28;19915;-85
2023/10/12 10:12:04;;;;;;;;;;;24.40;61.60;;;;;;5020192;28;20019;-85
2023/10/12 10:14:34;;;;;;;;;;;24.40;61.20;;;;;;5020890;28;19916;-85
2023/10/12 10:17:01;;;;;;;;;;;24.70;62.20;;;;;;5022099;28;19913;-86
2023/10/12 10:19:29;;;;;;;;;;;24.80;61.90;;;;;;5017181;28;19963;-85
2023/10/12 10:22:05;;;;;;;;;;;24.50;60.90;;;;;;5022023;28;19913;-86
2023/10/12 10:24:46;;;;;;;;;;;24.30;61.70;;;;;;5018865;28;19936;-86
2023/10/12 10:27:15;;;;;;;;;;;24.10;63.30;;;;;;5013691;28;19914;-86
2023/10/12 10:29:53;;;;;;;;;;;23.90;62.60;;;;;;5019953;28;19909;-87
2023/10/12 10:32:29;;;;;;;;;;;24.10;61.00;;;;;;5015338;28;20510;-85
2023/10/12 10:34:58;;;;;;;;;;;24.20;62.80;;;;;;5022494;28;19940;-85
2023/10/12 10:37:38;;;;;;;;;;;24.50;61.20;;;;;;5018882;28;19920;-86
2023/10/12 10:40:08;;;;;;;;;;;24.40;60.10;;;;;;5013679;28;19991;-85
2023/10/12 10:42:36;;;;;;;;;;;24.40;60.30;;;;;;5018050;28;19935;-85
2023/10/12 10:45:11;;;;;;;;;;;24.60;61.50;;;;;;5016315;28;19913;-86
2023/10/12 10:47:42;;;;;;;;;;;24.80;64.00;;;;;;5022112;28;19916;-85
2023/10/12 10:50:15;;;;;;;;;;;24.80;62.70;;;;;;5024129;28;20013;-86
2023/10/12 10:52:41;;;;;;;;;;;24.80;63.60;;;;;;5019033;28;19943;-86
2023/10/12 10:55:10;;;;;;;;;;;24.80;61.50;;;;;;5024431;28;19909;-86
2023/10/12 10:57:39;;;;;;;;;;;24.90;63.10;;;;;;5023610;28;19952;-86
2023/10/12 11:00:15;;;;;;;;;;;24.80;62.30;;;;;;5019107;28;19939;-85
2023/10/12 11:02:41;;;;;;;;;;;24.80;62.40;;;;;;5013171;28;20447;-86
2023/10/12 11:05:10;;;;;;;;;;;24.70;60.10;;;;;;5024053;28;19967;-86
2023/10/12 11:07:39;;;;;;;;;;;24.60;61.30;;;;;;5023215;28;19971;-86
2023/10/12 11:10:19;;;;;;;;;;;24.80;60.60;;;;;;5013658;28;19915;-86
2023/10/12 11:12:45;;;;;;;;;;;24.80;61.10;;;;;;5016691;28;19909;-85
2023/10/12 11:15:11;;;;;;;;;;;24.90;62.00;;;;;;5018647;28;19909;-85
2023/10/12 11:20:40;;;;;;;;;;;24.80;61.00;;;;;;4999819;28;20486;-86
2023/10/12 11:23:08;;;;;;;;;;;24.80;61.70;;;;;;5019303;28;19917;-86
2023/10/12 11:25:39;;;;;;;;;;;24.70;60.60;;;;;;5019345;28;19928;-85
2023/10/12 11:28:22;;;;;;;;;;;24.40;59.40;;;;;;5017781;28;19931;-86
2023/10/12 11:30:49;;;;;;;;;;;24.50;62.60;;;;;;5043860;28;20742;-86
2023/10/12 11:33:16;;;;;;;;;;;24.40;60.40;;;;;;5018401;28;19909;-86
2023/10/12 11:35:43;;;;;;;;;;;24.40;60.00;;;;;;5016603;28;19912;-86
2023/10/12 11:38:18;;;;;;;;;;;24.40;60.80;;;;;;5023418;28;20003;-87
2023/10/12 11:40:52;;;;;;;;;;;24.40;62.00;;;;;;5014960;28;19952;-86
2023/10/12 11:43:37;;;;;;;;;;;24.50;61.80;;;;;;5015808;28;20006;-87
2023/10/12 11:46:03;;;;;;;;;;;24.50;61.20;;;;;;5020698;28;19920;-87
2023/10/12 11:48:29;;;;;;;;;;;24.50;60.90;;;;;;5013962;28;19913;-86
2023/10/12 11:50:55;;;;;;;;;;;24.40;61.90;;;;;;5010546;28;19909;-86
2023/10/12 11:53:21;;;;;;;;;;;24.40;60.00;;;;;;5017725;28;19909;-87
2023/10/12 11:55:49;;;;;;;;;;;24.30;59.70;;;;;;5014367;28;19909;-85
2023/10/12 11:58:19;;;;;;;;;;;24.40;61.70;;;;;;5023196;28;19909;-87
2023/10/12 12:00:50;;;;;;;;;;;24.40;60.70;;;;;;5018272;28;20380;-86
2023/10/12 12:03:17;;;;;;;;;;;24.40;60.30;;;;;;5018409;28;20399;-86
2023/10/12 12:05:43;;;;;;;;;;;24.30;62.00;;;;;;5021690;28;20329;-86
2023/10/12 12:08:15;;;;;;;;;;;24.50;61.40;;;;;;5015244;28;19987;-86
2023/10/12 12:13:17;;;;;;;;;;;24.90;61.90;;;;;;5016552;28;19970;-87
2023/10/12 12:15:46;;;;;;;;;;;24.60;61.40;;;;;;5011717;28;19906;-86
2023/10/12 12:18:18;;;;;;;;;;;24.60;61.60;;;;;;5016868;28;19955;-87
2023/10/12 12:20:44;;;;;;;;;;;24.60;60.20;;;;;;5010969;28;20373;-86
2023/10/12 12:23:10;;;;;;;;;;;24.50;60.40;;;;;;5021313;28;19928;-87
2023/10/12 12:25:39;;;;;;;;;;;24.50;58.60;;;;;;5011106;28;20051;-87
2023/10/12 12:28:07;;;;;;;;;;;24.40;60.20;;;;;;5021748;28;20004;-86
2023/10/12 12:30:39;;;;;;;;;;;24.60;60.10;;;;;;5015265;28;20009;-86
2023/10/12 12:33:08;;;;;;;;;;;24.60;58.80;;;;;;5016344;28;19924;-86
2023/10/12 12:35:38;;;;;;;;;;;24.60;58.80;;;;;;5010077;28;19945;-87
2023/10/12 12:38:07;;;;;;;;;;;24.60;59.00;;;;;;5013688;28;19909;-86
2023/10/12 12:40:38;;;;;;;;;;;24.60;59.40;;;;;;5024398;28;19927;-86
2023/10/12 12:43:10;;;;;;;;;;;24.70;58.70;;;;;;5017172;28;19917;-87
2023/10/12 12:45:35;;;;;;;;;;;24.70;57.90;;;;;;5017272;28;19912;-86
2023/10/12 12:48:01;;;;;;;;;;;24.70;57.90;;;;;;5026516;28;19913;-87
2023/10/12 12:50:28;;;;;;;;;;;24.80;58.50;;;;;;5027235;28;19909;-87
2023/10/12 12:52:54;;;;;;;;;;;24.70;58.00;;;;;;5021707;28;19913;-87
2023/10/12 12:55:22;;;;;;;;;;;24.60;59.20;;;;;;5021015;28;19911;-86
2023/10/12 12:57:47;;;;;;;;;;;24.70;59.30;;;;;;5026687;28;19918;-86
2023/10/12 13:00:19;;;;;;;;;;;24.80;57.00;;;;;;5026482;28;19924;-86
2023/10/12 13:02:48;;;;;;;;;;;24.70;58.00;;;;;;5021832;28;20023;-86
2023/10/12 13:05:14;;;;;;;;;;;24.80;59.30;;;;;;5018403;28;19920;-86
2023/10/12 13:07:40;;;;;;;;;;;24.70;59.00;;;;;;5023289;28;19909;-87
2023/10/12 13:10:11;;;;;;;;;;;24.90;58.30;;;;;;5019639;28;19960;-87
2023/10/12 13:12:36;;;;;;;;;;;25.00;58.00;;;;;;5021558;28;20424;-87
2023/10/12 13:15:02;;;;;;;;;;;24.70;57.40;;;;;;5026283;28;19924;-87
2023/10/12 13:17:30;;;;;;;;;;;24.80;58.40;;;;;;5015628;28;19916;-87
2023/10/12 13:19:58;;;;;;;;;;;24.90;57.20;;;;;;5020906;28;19956;-87
2023/10/12 13:22:27;;;;;;;;;;;24.80;56.50;;;;;;5016163;28;19917;-86
2023/10/12 13:24:56;;;;;;;;;;;24.90;55.40;;;;;;5026566;28;19925;-86
2023/10/12 13:27:27;;;;;;;;;;;24.80;56.20;;;;;;5016666;28;20316;-87
2023/10/12 13:29:57;;;;;;;;;;;24.80;55.40;;;;;;5020831;28;20662;-87
2023/10/12 13:32:22;;;;;;;;;;;24.70;56.90;;;;;;5022495;28;19940;-87
2023/10/12 13:34:48;;;;;;;;;;;24.90;55.80;;;;;;5025427;28;19917;-85
2023/10/12 13:37:14;;;;;;;;;;;24.80;55.10;;;;;;5021716;28;20697;-87
2023/10/12 13:39:39;;;;;;;;;;;24.80;56.00;;;;;;5026235;28;20394;-87
2023/10/12 13:42:11;;;;;;;;;;;24.80;56.10;;;;;;5019608;28;20555;-86
2023/10/12 13:44:39;;;;;;;;;;;25.10;54.30;;;;;;5020144;28;19959;-87
2023/10/12 13:47:07;;;;;;;;;;;25.20;54.40;;;;;;5018245;28;19913;-86
2023/10/12 13:49:34;;;;;;;;;;;25.10;53.30;;;;;;5013459;28;19913;-87
2023/10/12 13:52:03;;;;;;;;;;;25.00;54.20;;;;;;5019706;28;19955;-86
2023/10/12 13:54:31;;;;;;;;;;;25.00;53.20;;;;;;5025967;28;19919;-87
2023/10/12 13:56:58;;;;;;;;;;;25.00;53.70;;;;;;5019551;28;19956;-86
2023/10/12 13:59:24;;;;;;;;;;;25.00;53.60;;;;;;5020849;28;19909;-85
2023/10/12 14:01:50;;;;;;;;;;;25.10;53.60;;;;;;5015850;28;19991;-86
2023/10/12 14:04:33;;;;;;;;;;;25.10;53.80;;;;;;5020595;28;19913;-87
2023/10/12 14:07:01;;;;;;;;;;;24.90;55.40;;;;;;5023103;28;19941;-87
2023/10/12 14:09:31;;;;;;;;;;;25.00;53.90;;;;;;5014385;28;19920;-86
2023/10/12 14:11:57;;;;;;;;;;;25.10;52.20;;;;;;5020290;28;19984;-86
2023/10/12 14:14:24;;;;;;;;;;;25.20;51.90;;;;;;5025773;28;19921;-88
2023/10/12 14:16:50;;;;;;;;;;;25.40;52.90;;;;;;5018951;28;19909;-86
2023/10/12 14:19:22;;;;;;;;;;;25.30;52.00;;;;;;5022150;28;20387;-87
2023/10/12 14:21:49;;;;;;;;;;;25.30;51.90;;;;;;5020184;28;20012;-86
2023/10/12 14:24:17;;;;;;;;;;;25.30;51.50;;;;;;5025246;28;20010;-87
2023/10/12 14:26:44;;;;;;;;;;;25.20;51.50;;;;;;5023082;28;19928;-86
2023/10/12 14:29:10;;;;;;;;;;;25.00;52.40;;;;;;5017075;28;19908;-87
2023/10/12 14:31:35;;;;;;;;;;;25.30;51.40;;;;;;5018680;28;19915;-87
2023/10/12 14:34:02;;;;;;;;;;;25.30;51.20;;;;;;5021090;28;19916;-86
2023/10/12 14:36:28;;;;;;;;;;;25.10;53.00;;;;;;5024494;28;19909;-87
2023/10/12 14:38:55;;;;;;;;;;;25.00;53.20;;;;;;5015563;28;19916;-87
2023/10/12 14:41:25;;;;;;;;;;;25.00;52.10;;;;;;5024338;28;19924;-87
2023/10/12 14:43:50;;;;;;;;;;;25.10;51.80;;;;;;5015881;28;20032;-86
2023/10/12 14:46:19;;;;;;;;;;;25.20;51.10;;;;;;5019987;28;20015;-87
2023/10/12 14:48:49;;;;;;;;;;;25.20;51.50;;;;;;5020328;28;19960;-87
2023/10/12 14:51:17;;;;;;;;;;;25.30;51.10;;;;;;5020195;28;19959;-86
2023/10/12 14:53:46;;;;;;;;;;;25.20;50.70;;;;;;5017816;28;19924;-87
2023/10/12 14:56:15;;;;;;;;;;;25.20;51.60;;;;;;5012687;28;19968;-86
2023/10/12 14:58:41;;;;;;;;;;;25.10;51.30;;;;;;5024515;28;19917;-91
2023/10/12 15:01:17;;;;;;;;;;;24.90;51.70;;;;;;5025195;28;20284;-89
2023/10/12 15:03:45;;;;;;;;;;;25.10;52.10;;;;;;5017079;28;19912;-91
2023/10/12 15:06:12;;;;;;;;;;;24.90;51.50;;;;;;5023938;28;19916;-92
2023/10/12 15:08:38;;;;;;;;;;;24.80;51.90;;;;;;5020495;28;19991;-90
2023/10/12 15:11:07;;;;;;;;;;;24.60;51.90;;;;;;5024977;28;20364;-90
2023/10/12 15:13:37;;;;;;;;;;;24.60;53.20;;;;;;5013929;28;19909;-89
2023/10/12 15:16:07;;;;;;;;;;;24.80;52.50;;;;;;5024075;28;19913;-88
2023/10/12 15:18:34;;;;;;;;;;;24.80;51.80;;;;;;5013147;28;19956;-84
2023/10/12 15:21:00;;;;;;;;;;;24.80;51.90;;;;;;5023714;28;19912;-88
2023/10/12 15:23:27;;;;;;;;;;;24.80;52.40;;;;;;5023606;28;19924;-87
2023/10/12 15:26:00;;;;;;;;;;;24.60;52.90;;;;;;5023942;28;20379;-88
2023/10/12 15:28:26;;;;;;;;;;;24.40;53.70;;;;;;5014122;28;19912;-87
2023/10/12 15:30:52;;;;;;;;;;;24.50;52.60;;;;;;5024291;28;19985;-87
2023/10/12 15:33:17;;;;;;;;;;;24.40;53.10;;;;;;5024708;28;19962;-87
2023/10/12 15:35:46;;;;;;;;;;;24.40;52.30;;;;;;5023783;28;19913;-87
2023/10/12 15:38:13;;;;;;;;;;;24.80;52.20;;;;;;5024454;28;20384;-87
2023/10/12 15:40:40;;;;;;;;;;;24.70;52.40;;;;;;5024217;28;19910;-87
2023/10/12 15:43:08;;;;;;;;;;;24.60;52.00;;;;;;5024095;28;19917;-86
2023/10/12 15:45:35;;;;;;;;;;;24.60;52.20;;;;;;5023494;28;20070;-88
2023/10/12 15:48:03;;;;;;;;;;;24.60;52.10;;;;;;5024104;28;19917;-89
2023/10/12 15:50:29;;;;;;;;;;;24.40;52.40;;;;;;5022912;28;19972;-89
2023/10/12 15:52:55;;;;;;;;;;;24.30;52.90;;;;;;5024293;28;20519;-90
2023/10/12 15:55:23;;;;;;;;;;;24.60;52.30;;;;;;5024949;28;19913;-88
2023/10/12 15:57:49;;;;;;;;;;;24.70;52.00;;;;;;5024569;28;19913;-91
2023/10/12 16:00:29;;;;;;;;;;;24.60;52.70;;;;;;5024858;28;19915;-90
2023/10/12 16:02:56;;;;;;;;;;;24.60;52.40;;;;;;5024548;28;20296;-88
2023/10/12 16:05:22;;;;;;;;;;;24.60;52.80;;;;;;5012742;28;19909;-89
2023/10/12 16:07:50;;;;;;;;;;;24.20;53.30;;;;;;5023907;28;19996;-92
2023/10/12 16:10:19;;;;;;;;;;;24.00;54.00;;;;;;5013973;28;19963;-89
2023/10/12 16:12:45;;;;;;;;;;;24.00;53.60;;;;;;5023624;28;20027;-87
2023/10/12 16:15:12;;;;;;;;;;;24.30;53.00;;;;;;5023268;28;20438;-87
2023/10/12 16:17:38;;;;;;;;;;;24.20;53.20;;;;;;5023813;28;19909;-90
2023/10/12 16:20:05;;;;;;;;;;;24.10;53.80;;;;;;5055100;28;19916;-90
2023/10/12 16:22:32;;;;;;;;;;;23.90;54.70;;;;;;5023158;28;19917;-90
2023/10/12 16:25:00;;;;;;;;;;;23.80;54.90;;;;;;5023483;28;19921;-90
2023/10/12 16:27:27;;;;;;;;;;;23.80;55.20;;;;;;5023347;28;19954;-86
2023/10/12 16:29:52;;;;;;;;;;;23.70;55.00;;;;;;5023009;28;19916;-89
2023/10/12 16:32:18;;;;;;;;;;;23.60;55.50;;;;;;5023438;28;19911;-89
2023/10/12 16:34:43;;;;;;;;;;;23.40;55.80;;;;;;5023556;28;19935;-89
2023/10/12 16:37:09;;;;;;;;;;;23.30;55.90;;;;;;5022554;28;19913;-81
2023/10/12 16:39:35;;;;;;;;;;;23.30;55.50;;;;;;5022040;28;19920;-81
2023/10/12 16:42:02;;;;;;;;;;;23.30;55.60;;;;;;5021867;28;19952;-82
2023/10/12 16:44:27;;;;;;;;;;;23.20;55.70;;;;;;5020714;28;19917;-88
2023/10/12 16:46:53;;;;;;;;;;;23.00;55.90;;;;;;5020030;28;19956;-84